Weather History for Georgetown, SC

Change the Weather History Date:

Saturday, November 30, 2013

  Actual Average Record
Temperature  
Mean Temperature 45 °F -  
Max Temperature 57 °F 65 °F 73 °F (2010)
Min Temperature 33 °F 41 °F 33 °F (2011)
Degree Days  
Heating Degree Days 20    
Moisture  
Dew Point 37 °F    
Average Humidity 75    
Maximum Humidity 93    
Minimum Humidity 58    
Precipitation  
Precipitation 0.00 in - - ()
Sea Level Pressure  
Sea Level Pressure 30.47 in    
Wind  
Wind Speed 9 mph (NNE)    
Max Wind Speed 13 mph    
Max Gust Speed 17 mph    
Visibility 10 miles    
Events      
Averages and records for this station are not official NWS values.
T = Trace of Precipitation, MM = Missing Value Source: NWS Daily Summary

Daily Weather History Graph

Daily Weather History Graph

Search for Another Location

Airport:

Trip Planner

Search our weather history database for the weather conditions in past years. The results will help you decide how hot, cold, wet, or windy it might be!

Date:

Astronomy

Nov. 30, 2013 Rise Set
Actual Time 7:02 AM EST 5:09 PM EST
Civil Twilight 6:35 AM EST 5:36 PM EST
Nautical Twilight 6:04 AM EST 6:07 PM EST
Astronomical Twilight 5:34 AM EST 6:37 PM EST
Moon 4:18 AM EST (11/30) 3:27 PM EST (11/30)
Length of Visible Light 11h 01m
Length of Day
10h 07m
Waning Crescent, 7% of the Moon is Illuminated
Nov 30
Waning Crescent
Dec 2
New
Dec 9
First Quarter
Dec 17
Full
Dec 25
Last Quarter

Hourly Weather History & Observations

Time (EST) Temp. Windchill Dew Point Humidity Pressure Visibility Wind Dir Wind Speed Gust Speed Precip Events Conditions
12:15 AM 41.0 °F 35.2 °F 32.0 °F 70% 30.53 in 10.0 mi NNE 9.2 mph - N/A   Clear
12:35 AM 39.2 °F 32.5 °F 32.0 °F 75% 30.52 in 10.0 mi NNE 10.4 mph - N/A   Clear
12:55 AM 39.2 °F 33.0 °F 32.0 °F 75% 30.51 in 10.0 mi NNE 9.2 mph - N/A   Clear
1:15 AM 37.4 °F 30.3 °F 32.0 °F 81% 30.52 in 10.0 mi NNE 10.4 mph - N/A   Clear
1:35 AM 37.4 °F 29.3 °F 32.0 °F 81% 30.52 in 10.0 mi NNE 12.7 mph - N/A   Clear
1:55 AM 37.4 °F 30.8 °F 32.0 °F 81% 30.53 in 10.0 mi NNE 9.2 mph - N/A   Clear
2:15 AM 37.4 °F 29.8 °F 32.0 °F 81% 30.53 in 10.0 mi NNE 11.5 mph 17.3 mph N/A   Clear
2:35 AM 37.4 °F 30.3 °F 32.0 °F 81% 30.53 in 10.0 mi NNE 10.4 mph - N/A   Clear
2:55 AM 37.4 °F 29.8 °F 32.0 °F 81% 30.53 in 10.0 mi NE 11.5 mph 16.1 mph N/A   Clear
3:15 AM 37.4 °F 29.8 °F 32.0 °F 81% 30.52 in 10.0 mi NNE 11.5 mph - N/A   Clear
3:35 AM 37.4 °F 30.3 °F 32.0 °F 81% 30.52 in 10.0 mi NNE 10.4 mph - N/A   Clear
3:55 AM 35.6 °F 28.6 °F 30.2 °F 81% 30.52 in 10.0 mi NNE 9.2 mph - N/A   Clear
4:15 AM 35.6 °F 28.0 °F 30.2 °F 81% 30.53 in 10.0 mi NNE 10.4 mph - N/A   Clear
4:35 AM 35.6 °F 28.0 °F 30.2 °F 81% 30.52 in 10.0 mi NNE 10.4 mph - N/A   Clear
4:55 AM 35.6 °F 29.2 °F 30.2 °F 81% 30.52 in 10.0 mi NNE 8.1 mph - N/A   Clear
5:15 AM 33.8 °F 27.7 °F 30.2 °F 87% 30.53 in 10.0 mi North 6.9 mph - N/A   Clear
5:35 AM 33.8 °F 27.7 °F 30.2 °F 87% 30.54 in 10.0 mi North 6.9 mph - N/A   Clear
5:55 AM 33.8 °F 27.7 °F 30.2 °F 87% 30.53 in 10.0 mi NNE 6.9 mph - N/A   Clear
6:15 AM 33.8 °F 27.7 °F 30.2 °F 87% 30.54 in 10.0 mi North 6.9 mph - N/A   Clear
6:35 AM 33.8 °F 27.7 °F 30.2 °F 87% 30.55 in 10.0 mi NNE 6.9 mph - N/A   Clear
6:55 AM 33.8 °F 27.0 °F 30.2 °F 87% 30.55 in 10.0 mi North 8.1 mph - N/A   Scattered Clouds
7:15 AM 33.8 °F 27.7 °F 32.0 °F 93% 30.55 in 10.0 mi North 6.9 mph - N/A   Overcast
7:35 AM 33.8 °F 26.4 °F 32.0 °F 93% 30.55 in 10.0 mi North 9.2 mph - N/A   Overcast
7:55 AM 33.8 °F 25.8 °F 32.0 °F 93% 30.55 in 10.0 mi North 10.4 mph - N/A   Overcast
8:15 AM 35.6 °F 28.6 °F 32.0 °F 87% 30.55 in 10.0 mi North 9.2 mph - N/A   Overcast
8:35 AM 35.6 °F 29.9 °F 32.0 °F 87% 30.55 in 10.0 mi North 6.9 mph 16.1 mph N/A   Overcast
8:55 AM 35.6 °F 28.6 °F 32.0 °F 87% 30.56 in 10.0 mi NNE 9.2 mph - N/A   Overcast
9:15 AM 37.4 °F 29.8 °F 32.0 °F 81% 30.55 in 10.0 mi NNE 11.5 mph - N/A   Overcast
9:35 AM 39.2 °F 31.6 °F 33.8 °F 81% 30.55 in 10.0 mi NNE 12.7 mph - N/A   Overcast
9:55 AM 41.0 °F 34.3 °F 35.6 °F 81% 30.55 in 10.0 mi NNE 11.5 mph - N/A   Mostly Cloudy
10:15 AM 42.8 °F 36.6 °F 35.6 °F 76% 30.54 in 10.0 mi NNE 11.5 mph - N/A   Scattered Clouds
10:35 AM 44.6 °F 39.7 °F 37.4 °F 76% 30.53 in 10.0 mi NNE 9.2 mph - N/A   Scattered Clouds
10:55 AM 46.4 °F 42.9 °F 37.4 °F 71% 30.53 in 10.0 mi North 6.9 mph - N/A   Clear
11:15 AM 46.4 °F 41.5 °F 37.4 °F 71% 30.51 in 10.0 mi NNW 10.4 mph - N/A   Clear
11:35 AM 50.0 °F - 39.2 °F 66% 30.51 in 10.0 mi North 10.4 mph - N/A   Clear
11:55 AM 50.0 °F - 37.4 °F 62% 30.50 in 10.0 mi North 6.9 mph - N/A   Clear
12:15 PM 51.8 °F - 39.2 °F 62% 30.48 in 10.0 mi NE 3.5 mph - N/A   Clear
12:35 PM 51.8 °F - 41.0 °F 67% 30.47 in 10.0 mi North 4.6 mph - N/A   Clear
12:55 PM 53.6 °F - 41.0 °F 62% 30.46 in 10.0 mi NW 5.8 mph - N/A   Clear
1:15 PM 53.6 °F - 41.0 °F 62% 30.45 in 10.0 mi North 4.6 mph - N/A   Clear
1:35 PM 55.4 °F - 41.0 °F 58% 30.45 in 10.0 mi North 5.8 mph - N/A   Clear
1:55 PM 55.4 °F - 42.8 °F 63% 30.44 in 10.0 mi NNW 6.9 mph - N/A   Mostly Cloudy
2:15 PM 55.4 °F - 42.8 °F 63% 30.43 in 10.0 mi North 8.1 mph - N/A   Scattered Clouds
2:35 PM 57.2 °F - 42.8 °F 59% 30.42 in 10.0 mi North 9.2 mph - N/A   Scattered Clouds
2:55 PM 57.2 °F - 42.8 °F 59% 30.41 in 10.0 mi North 6.9 mph - N/A   Mostly Cloudy
3:15 PM 55.4 °F - 42.8 °F 63% 30.41 in 10.0 mi North 6.9 mph - N/A   Overcast
3:35 PM 57.2 °F - 42.8 °F 59% 30.41 in 10.0 mi North 4.6 mph - N/A   Overcast
3:55 PM 55.4 °F - 42.8 °F 63% 30.41 in 10.0 mi NE 5.8 mph - N/A   Scattered Clouds
4:15 PM 55.4 °F - 42.8 °F 63% 30.41 in 10.0 mi North 5.8 mph - N/A   Scattered Clouds
4:35 PM 55.4 °F - 42.8 °F 63% 30.41 in 10.0 mi North 6.9 mph - N/A   Mostly Cloudy
4:55 PM 53.6 °F - 42.8 °F 67% 30.40 in 10.0 mi North 4.6 mph - N/A   Overcast
5:15 PM 53.6 °F - 42.8 °F 67% 30.41 in 10.0 mi North 4.6 mph - N/A   Overcast
5:35 PM 51.8 °F - 42.8 °F 71% 30.40 in 10.0 mi North 3.5 mph - N/A   Overcast
5:55 PM 51.8 °F - 41.0 °F 67% 30.40 in 10.0 mi NNE 11.5 mph - N/A   Overcast
6:15 PM 51.8 °F - 41.0 °F 67% 30.40 in 10.0 mi North 8.1 mph - N/A   Overcast
6:35 PM 51.8 °F - 41.0 °F 67% 30.39 in 10.0 mi North 10.4 mph - N/A   Overcast
6:55 PM 51.8 °F - 41.0 °F 67% 30.39 in 10.0 mi North 6.9 mph - N/A   Overcast
7:15 PM 51.8 °F - 41.0 °F 67% 30.39 in 10.0 mi North 9.2 mph - N/A   Overcast
7:35 PM 51.8 °F - 41.0 °F 67% 30.39 in 10.0 mi North 8.1 mph - N/A   Overcast
7:55 PM 51.8 °F - 41.0 °F 67% 30.38 in 10.0 mi NNE 10.4 mph - N/A   Overcast
8:15 PM 50.0 °F - 41.0 °F 71% 30.38 in 10.0 mi North 10.4 mph - N/A   Overcast
8:35 PM 50.0 °F - 41.0 °F 71% 30.38 in 10.0 mi North 8.1 mph - N/A   Overcast
8:55 PM 50.0 °F - 41.0 °F 71% 30.38 in 10.0 mi North 6.9 mph - N/A   Overcast
9:15 PM 50.0 °F - 41.0 °F 71% 30.38 in 10.0 mi North 5.8 mph - N/A   Overcast
9:35 PM 50.0 °F - 41.0 °F 71% 30.38 in 10.0 mi NNE 3.5 mph - N/A   Overcast
9:55 PM 50.0 °F - 41.0 °F 71% 30.37 in 10.0 mi NNE 9.2 mph - N/A   Overcast
10:15 PM 48.2 °F - 41.0 °F 76% 30.37 in 10.0 mi NNE 5.8 mph - N/A   Mostly Cloudy
10:35 PM 46.4 °F 45.2 °F 41.0 °F 81% 30.36 in 10.0 mi NNE 3.5 mph - N/A   Mostly Cloudy
10:55 PM 46.4 °F 43.5 °F 41.0 °F 81% 30.35 in 10.0 mi North 5.8 mph - N/A   Mostly Cloudy
11:15 PM 44.6 °F - 41.0 °F 87% 30.35 in 10.0 mi Calm Calm - N/A   Scattered Clouds
11:35 PM 44.6 °F - 41.0 °F 87% 30.34 in 10.0 mi Calm Calm - N/A   Scattered Clouds
11:55 PM 44.6 °F 43.1 °F 41.0 °F 87% 30.34 in 10.0 mi North 3.5 mph - N/A   Scattered Clouds